sensor_id;sensor_type;location;lat;lon;timestamp;temperature;humidity
7588;DHT22;3835;48.850;8.938;2024-01-06T00:01:13;4.70;99.90
7588;DHT22;3835;48.850;8.938;2024-01-06T00:03:40;4.60;99.90
7588;DHT22;3835;48.850;8.938;2024-01-06T00:06:07;4.60;99.90
7588;DHT22;3835;48.850;8.938;2024-01-06T00:08:34;4.60;99.90
7588;DHT22;3835;48.850;8.938;2024-01-06T00:11:01;4.60;99.90
7588;DHT22;3835;48.850;8.938;2024-01-06T00:13:29;4.70;99.90
7588;DHT22;3835;48.850;8.938;2024-01-06T00:15:56;4.50;99.90
7588;DHT22;3835;48.850;8.938;2024-01-06T00:18:25;4.60;99.90
7588;DHT22;3835;48.850;8.938;2024-01-06T00:20:52;4.70;99.90
7588;DHT22;3835;48.850;8.938;2024-01-06T00:23:19;4.70;99.90
7588;DHT22;3835;48.850;8.938;2024-01-06T00:25:46;4.50;99.90
7588;DHT22;3835;48.850;8.938;2024-01-06T00:28:13;4.50;99.90
7588;DHT22;3835;48.850;8.938;2024-01-06T00:30:40;4.50;99.90
7588;DHT22;3835;48.850;8.938;2024-01-06T00:33:07;4.50;99.90
7588;DHT22;3835;48.850;8.938;2024-01-06T00:35:35;4.50;99.90
7588;DHT22;3835;48.850;8.938;2024-01-06T00:38:03;4.40;99.90
7588;DHT22;3835;48.850;8.938;2024-01-06T00:40:30;4.40;99.90
7588;DHT22;3835;48.850;8.938;2024-01-06T00:45:28;4.40;99.90
7588;DHT22;3835;48.850;8.938;2024-01-06T00:47:56;4.40;99.90
7588;DHT22;3835;48.850;8.938;2024-01-06T00:50:23;4.40;99.90
7588;DHT22;3835;48.850;8.938;2024-01-06T00:52:51;4.60;99.90
7588;DHT22;3835;48.850;8.938;2024-01-06T00:55:18;4.40;99.90
7588;DHT22;3835;48.850;8.938;2024-01-06T00:57:45;4.50;99.90
7588;DHT22;3835;48.850;8.938;2024-01-06T01:00:13;4.30;99.90
7588;DHT22;3835;48.850;8.938;2024-01-06T01:02:40;4.30;99.90
7588;DHT22;3835;48.850;8.938;2024-01-06T01:05:07;4.30;99.90
7588;DHT22;3835;48.850;8.938;2024-01-06T01:07:34;4.30;99.90
7588;DHT22;3835;48.850;8.938;2024-01-06T01:10:02;4.30;99.90
7588;DHT22;3835;48.850;8.938;2024-01-06T01:12:30;4.30;99.90
7588;DHT22;3835;48.850;8.938;2024-01-06T01:14:57;4.30;99.90
7588;DHT22;3835;48.850;8.938;2024-01-06T01:17:24;4.30;99.90
7588;DHT22;3835;48.850;8.938;2024-01-06T01:19:51;4.20;99.90
7588;DHT22;3835;48.850;8.938;2024-01-06T01:22:17;4.30;99.90
7588;DHT22;3835;48.850;8.938;2024-01-06T01:24:44;4.30;99.90
7588;DHT22;3835;48.850;8.938;2024-01-06T01:27:11;4.40;99.90
7588;DHT22;3835;48.850;8.938;2024-01-06T01:29:38;4.40;99.90
7588;DHT22;3835;48.850;8.938;2024-01-06T01:32:06;4.20;99.90
7588;DHT22;3835;48.850;8.938;2024-01-06T01:34:33;4.20;99.90
7588;DHT22;3835;48.850;8.938;2024-01-06T01:37:00;4.20;99.90
7588;DHT22;3835;48.850;8.938;2024-01-06T01:39:26;4.50;99.90
7588;DHT22;3835;48.850;8.938;2024-01-06T01:41:53;4.30;99.90
7588;DHT22;3835;48.850;8.938;2024-01-06T01:44:21;4.20;99.90
7588;DHT22;3835;48.850;8.938;2024-01-06T01:46:48;4.20;99.90
7588;DHT22;3835;48.850;8.938;2024-01-06T01:49:15;4.20;99.90
7588;DHT22;3835;48.850;8.938;2024-01-06T01:51:42;4.20;99.90
7588;DHT22;3835;48.850;8.938;2024-01-06T01:54:10;4.30;99.90
7588;DHT22;3835;48.850;8.938;2024-01-06T01:56:39;4.20;99.90
7588;DHT22;3835;48.850;8.938;2024-01-06T01:59:09;4.20;99.90
7588;DHT22;3835;48.850;8.938;2024-01-06T02:01:39;4.10;99.90
7588;DHT22;3835;48.850;8.938;2024-01-06T02:04:07;4.30;99.90
7588;DHT22;3835;48.850;8.938;2024-01-06T02:06:34;4.10;99.90
7588;DHT22;3835;48.850;8.938;2024-01-06T02:09:01;4.00;99.90
7588;DHT22;3835;48.850;8.938;2024-01-06T02:11:28;4.00;99.90
7588;DHT22;3835;48.850;8.938;2024-01-06T02:13:55;4.00;99.90
7588;DHT22;3835;48.850;8.938;2024-01-06T02:16:22;4.00;99.90
7588;DHT22;3835;48.850;8.938;2024-01-06T02:18:50;4.00;99.90
7588;DHT22;3835;48.850;8.938;2024-01-06T02:21:17;3.90;99.90
7588;DHT22;3835;48.850;8.938;2024-01-06T02:23:47;4.10;99.90
7588;DHT22;3835;48.850;8.938;2024-01-06T02:26:14;4.00;99.90
7588;DHT22;3835;48.850;8.938;2024-01-06T02:28:41;4.00;99.90
7588;DHT22;3835;48.850;8.938;2024-01-06T02:31:10;3.90;99.90
7588;DHT22;3835;48.850;8.938;2024-01-06T02:33:37;3.90;99.90
7588;DHT22;3835;48.850;8.938;2024-01-06T02:36:04;3.80;99.90
7588;DHT22;3835;48.850;8.938;2024-01-06T02:38:31;4.00;99.90
7588;DHT22;3835;48.850;8.938;2024-01-06T02:40:59;4.30;99.90
7588;DHT22;3835;48.850;8.938;2024-01-06T02:43:26;4.20;99.90
7588;DHT22;3835;48.850;8.938;2024-01-06T02:45:53;4.10;99.90
7588;DHT22;3835;48.850;8.938;2024-01-06T02:48:20;4.00;99.90
7588;DHT22;3835;48.850;8.938;2024-01-06T02:50:47;3.90;99.90
7588;DHT22;3835;48.850;8.938;2024-01-06T02:53:13;3.90;99.90
7588;DHT22;3835;48.850;8.938;2024-01-06T02:55:40;3.90;99.90
7588;DHT22;3835;48.850;8.938;2024-01-06T02:58:08;3.80;99.90
7588;DHT22;3835;48.850;8.938;2024-01-06T03:00:35;3.70;99.90
7588;DHT22;3835;48.850;8.938;2024-01-06T03:03:02;3.80;99.90
7588;DHT22;3835;48.850;8.938;2024-01-06T03:05:29;3.80;99.90
7588;DHT22;3835;48.850;8.938;2024-01-06T03:07:56;4.10;99.90
7588;DHT22;3835;48.850;8.938;2024-01-06T03:10:23;3.70;99.90
7588;DHT22;3835;48.850;8.938;2024-01-06T03:12:50;3.80;99.90
7588;DHT22;3835;48.850;8.938;2024-01-06T03:15:19;3.70;99.90
7588;DHT22;3835;48.850;8.938;2024-01-06T03:17:45;3.70;99.90
7588;DHT22;3835;48.850;8.938;2024-01-06T03:20:13;3.70;99.90
7588;DHT22;3835;48.850;8.938;2024-01-06T03:22:39;3.70;99.90
7588;DHT22;3835;48.850;8.938;2024-01-06T03:25:07;4.00;99.90
7588;DHT22;3835;48.850;8.938;2024-01-06T03:27:34;3.70;99.90
7588;DHT22;3835;48.850;8.938;2024-01-06T03:30:01;3.90;99.90
7588;DHT22;3835;48.850;8.938;2024-01-06T03:32:30;3.70;99.90
7588;DHT22;3835;48.850;8.938;2024-01-06T03:34:57;3.70;99.90
7588;DHT22;3835;48.850;8.938;2024-01-06T03:37:24;3.80;99.90
7588;DHT22;3835;48.850;8.938;2024-01-06T03:39:51;3.60;99.90
7588;DHT22;3835;48.850;8.938;2024-01-06T03:42:17;3.60;99.90
7588;DHT22;3835;48.850;8.938;2024-01-06T03:44:44;3.90;99.90
7588;DHT22;3835;48.850;8.938;2024-01-06T03:47:11;3.80;99.90
7588;DHT22;3835;48.850;8.938;2024-01-06T03:49:39;3.80;99.90
7588;DHT22;3835;48.850;8.938;2024-01-06T03:52:06;3.40;99.90
7588;DHT22;3835;48.850;8.938;2024-01-06T03:54:33;3.60;99.90
7588;DHT22;3835;48.850;8.938;2024-01-06T03:57:00;3.50;99.90
7588;DHT22;3835;48.850;8.938;2024-01-06T03:59:27;3.40;99.90
7588;DHT22;3835;48.850;8.938;2024-01-06T04:01:52;3.60;99.90
7588;DHT22;3835;48.850;8.938;2024-01-06T04:04:20;3.60;99.90
7588;DHT22;3835;48.850;8.938;2024-01-06T04:06:48;3.40;99.90
7588;DHT22;3835;48.850;8.938;2024-01-06T04:09:14;3.80;99.90
7588;DHT22;3835;48.850;8.938;2024-01-06T04:11:41;3.80;99.90
7588;DHT22;3835;48.850;8.938;2024-01-06T04:14:08;3.30;99.90
7588;DHT22;3835;48.850;8.938;2024-01-06T04:16:35;3.30;99.90
7588;DHT22;3835;48.850;8.938;2024-01-06T04:19:02;3.50;99.90
7588;DHT22;3835;48.850;8.938;2024-01-06T04:21:29;3.70;99.90
7588;DHT22;3835;48.850;8.938;2024-01-06T04:23:57;3.40;99.90
7588;DHT22;3835;48.850;8.938;2024-01-06T04:26:24;3.40;99.90
7588;DHT22;3835;48.850;8.938;2024-01-06T04:28:51;3.40;99.90
7588;DHT22;3835;48.850;8.938;2024-01-06T04:31:18;3.50;99.90
7588;DHT22;3835;48.850;8.938;2024-01-06T04:33:45;3.40;99.90
7588;DHT22;3835;48.850;8.938;2024-01-06T04:36:12;3.70;99.90
7588;DHT22;3835;48.850;8.938;2024-01-06T04:38:39;3.50;99.90
7588;DHT22;3835;48.850;8.938;2024-01-06T04:41:07;3.40;99.90
7588;DHT22;3835;48.850;8.938;2024-01-06T04:43:34;3.80;99.90
7588;DHT22;3835;48.850;8.938;2024-01-06T04:46:00;3.50;99.90
7588;DHT22;3835;48.850;8.938;2024-01-06T04:48:28;3.50;99.90
7588;DHT22;3835;48.850;8.938;2024-01-06T04:50:54;3.60;99.90
7588;DHT22;3835;48.850;8.938;2024-01-06T04:53:21;3.50;99.90
7588;DHT22;3835;48.850;8.938;2024-01-06T04:55:48;3.80;99.90
7588;DHT22;3835;48.850;8.938;2024-01-06T04:58:16;3.60;99.90
7588;DHT22;3835;48.850;8.938;2024-01-06T05:00:43;3.50;99.90
7588;DHT22;3835;48.850;8.938;2024-01-06T05:03:10;3.50;99.90
7588;DHT22;3835;48.850;8.938;2024-01-06T05:05:37;3.60;99.90
7588;DHT22;3835;48.850;8.938;2024-01-06T05:08:04;3.60;99.90
7588;DHT22;3835;48.850;8.938;2024-01-06T05:10:31;3.60;99.90
7588;DHT22;3835;48.850;8.938;2024-01-06T05:12:58;3.70;99.90
7588;DHT22;3835;48.850;8.938;2024-01-06T05:15:26;3.80;99.90
7588;DHT22;3835;48.850;8.938;2024-01-06T05:17:53;4.00;99.90
7588;DHT22;3835;48.850;8.938;2024-01-06T05:20:20;3.80;99.90
7588;DHT22;3835;48.850;8.938;2024-01-06T05:22:47;3.90;99.90
7588;DHT22;3835;48.850;8.938;2024-01-06T05:25:14;3.70;99.90
7588;DHT22;3835;48.850;8.938;2024-01-06T05:27:40;3.70;99.90
7588;DHT22;3835;48.850;8.938;2024-01-06T05:30:08;3.70;99.90
7588;DHT22;3835;48.850;8.938;2024-01-06T05:32:37;3.70;99.90
7588;DHT22;3835;48.850;8.938;2024-01-06T05:35:04;3.80;99.90
7588;DHT22;3835;48.850;8.938;2024-01-06T05:37:31;3.70;99.90
7588;DHT22;3835;48.850;8.938;2024-01-06T05:39:58;4.00;99.90
7588;DHT22;3835;48.850;8.938;2024-01-06T05:42:26;3.90;99.90
7588;DHT22;3835;48.850;8.938;2024-01-06T05:44:53;3.90;99.90
7588;DHT22;3835;48.850;8.938;2024-01-06T05:47:20;3.70;99.90
7588;DHT22;3835;48.850;8.938;2024-01-06T05:49:48;3.70;99.90
7588;DHT22;3835;48.850;8.938;2024-01-06T05:52:15;3.80;99.90
7588;DHT22;3835;48.850;8.938;2024-01-06T05:54:42;3.80;99.90
7588;DHT22;3835;48.850;8.938;2024-01-06T05:57:09;3.70;99.90
7588;DHT22;3835;48.850;8.938;2024-01-06T05:59:37;3.70;99.90
7588;DHT22;3835;48.850;8.938;2024-01-06T06:02:04;3.60;99.90
7588;DHT22;3835;48.850;8.938;2024-01-06T06:04:31;3.70;99.90
7588;DHT22;3835;48.850;8.938;2024-01-06T06:07:02;4.00;99.90
7588;DHT22;3835;48.850;8.938;2024-01-06T06:09:30;3.70;99.90
7588;DHT22;3835;48.850;8.938;2024-01-06T06:11:58;3.90;99.90
7588;DHT22;3835;48.850;8.938;2024-01-06T06:14:25;3.60;99.90
7588;DHT22;3835;48.850;8.938;2024-01-06T06:16:54;3.60;99.90
7588;DHT22;3835;48.850;8.938;2024-01-06T06:19:21;3.80;99.90
7588;DHT22;3835;48.850;8.938;2024-01-06T06:21:47;3.60;99.90
7588;DHT22;3835;48.850;8.938;2024-01-06T06:24:16;3.80;99.90
7588;DHT22;3835;48.850;8.938;2024-01-06T06:26:42;4.00;99.90
7588;DHT22;3835;48.850;8.938;2024-01-06T06:29:09;3.80;99.90
7588;DHT22;3835;48.850;8.938;2024-01-06T06:31:36;3.80;99.90
7588;DHT22;3835;48.850;8.938;2024-01-06T06:34:03;3.90;99.90
7588;DHT22;3835;48.850;8.938;2024-01-06T06:36:30;3.90;99.90
7588;DHT22;3835;48.850;8.938;2024-01-06T06:38:56;3.90;99.90
7588;DHT22;3835;48.850;8.938;2024-01-06T06:41:25;3.80;99.90
7588;DHT22;3835;48.850;8.938;2024-01-06T06:43:52;4.10;99.90
7588;DHT22;3835;48.850;8.938;2024-01-06T06:46:19;3.80;99.90
7588;DHT22;3835;48.850;8.938;2024-01-06T06:48:46;3.80;99.90
7588;DHT22;3835;48.850;8.938;2024-01-06T06:51:13;3.80;99.90
7588;DHT22;3835;48.850;8.938;2024-01-06T06:53:40;3.80;99.90
7588;DHT22;3835;48.850;8.938;2024-01-06T06:56:07;3.90;99.90
7588;DHT22;3835;48.850;8.938;2024-01-06T06:58:36;3.90;99.90
7588;DHT22;3835;48.850;8.938;2024-01-06T07:01:03;4.00;99.90
7588;DHT22;3835;48.850;8.938;2024-01-06T07:03:31;3.90;99.90
7588;DHT22;3835;48.850;8.938;2024-01-06T07:05:58;4.00;99.90
7588;DHT22;3835;48.850;8.938;2024-01-06T07:08:25;4.00;99.90
7588;DHT22;3835;48.850;8.938;2024-01-06T07:10:52;4.00;99.90
7588;DHT22;3835;48.850;8.938;2024-01-06T07:13:19;4.40;99.90
7588;DHT22;3835;48.850;8.938;2024-01-06T07:15:47;4.00;99.90
7588;DHT22;3835;48.850;8.938;2024-01-06T07:18:14;4.10;99.90
7588;DHT22;3835;48.850;8.938;2024-01-06T07:20:41;4.00;99.90
7588;DHT22;3835;48.850;8.938;2024-01-06T07:23:08;4.10;99.90
7588;DHT22;3835;48.850;8.938;2024-01-06T07:25:35;4.10;99.90
7588;DHT22;3835;48.850;8.938;2024-01-06T07:28:02;4.10;99.90
7588;DHT22;3835;48.850;8.938;2024-01-06T07:30:29;4.10;99.90
7588;DHT22;3835;48.850;8.938;2024-01-06T07:32:58;4.00;99.90
7588;DHT22;3835;48.850;8.938;2024-01-06T07:35:25;4.30;99.90
7588;DHT22;3835;48.850;8.938;2024-01-06T07:37:52;4.00;99.90
7588;DHT22;3835;48.850;8.938;2024-01-06T07:40:19;4.10;99.90
7588;DHT22;3835;48.850;8.938;2024-01-06T07:42:46;4.70;99.90
7588;DHT22;3835;48.850;8.938;2024-01-06T07:45:13;4.30;99.90
7588;DHT22;3835;48.850;8.938;2024-01-06T07:47:40;4.20;99.90
7588;DHT22;3835;48.850;8.938;2024-01-06T07:50:10;4.20;99.90
7588;DHT22;3835;48.850;8.938;2024-01-06T07:52:37;4.30;99.90
7588;DHT22;3835;48.850;8.938;2024-01-06T07:55:04;5.00;99.90
7588;DHT22;3835;48.850;8.938;2024-01-06T07:57:34;4.40;99.90
7588;DHT22;3835;48.850;8.938;2024-01-06T08:00:01;4.40;99.90
7588;DHT22;3835;48.850;8.938;2024-01-06T08:02:28;4.50;99.90
7588;DHT22;3835;48.850;8.938;2024-01-06T08:04:56;4.50;99.90
7588;DHT22;3835;48.850;8.938;2024-01-06T08:07:25;4.50;99.90
7588;DHT22;3835;48.850;8.938;2024-01-06T08:09:52;4.50;99.90
7588;DHT22;3835;48.850;8.938;2024-01-06T08:12:18;4.70;99.90
7588;DHT22;3835;48.850;8.938;2024-01-06T08:14:45;4.50;99.90
7588;DHT22;3835;48.850;8.938;2024-01-06T08:17:12;4.50;99.90
7588;DHT22;3835;48.850;8.938;2024-01-06T08:19:39;4.70;99.90
7588;DHT22;3835;48.850;8.938;2024-01-06T08:22:07;4.50;99.90
7588;DHT22;3835;48.850;8.938;2024-01-06T08:24:35;4.60;99.90
7588;DHT22;3835;48.850;8.938;2024-01-06T08:27:02;4.70;99.90
7588;DHT22;3835;48.850;8.938;2024-01-06T08:29:29;4.60;99.90
7588;DHT22;3835;48.850;8.938;2024-01-06T08:31:56;4.80;99.90
7588;DHT22;3835;48.850;8.938;2024-01-06T08:34:23;4.70;99.90
7588;DHT22;3835;48.850;8.938;2024-01-06T08:36:50;4.80;99.90
7588;DHT22;3835;48.850;8.938;2024-01-06T08:39:17;5.10;99.90
7588;DHT22;3835;48.850;8.938;2024-01-06T08:41:45;4.70;99.90
7588;DHT22;3835;48.850;8.938;2024-01-06T08:44:12;4.80;99.90
7588;DHT22;3835;48.850;8.938;2024-01-06T08:46:39;4.70;99.90
7588;DHT22;3835;48.850;8.938;2024-01-06T08:49:06;4.70;99.90
7588;DHT22;3835;48.850;8.938;2024-01-06T08:51:33;4.90;99.90
7588;DHT22;3835;48.850;8.938;2024-01-06T08:54:01;4.90;99.90
7588;DHT22;3835;48.850;8.938;2024-01-06T08:56:30;4.90;99.90
7588;DHT22;3835;48.850;8.938;2024-01-06T08:58:58;5.10;99.90
7588;DHT22;3835;48.850;8.938;2024-01-06T09:01:25;5.10;99.90
7588;DHT22;3835;48.850;8.938;2024-01-06T09:03:52;5.20;99.90
7588;DHT22;3835;48.850;8.938;2024-01-06T09:06:19;5.10;99.90
7588;DHT22;3835;48.850;8.938;2024-01-06T09:08:46;5.20;99.90
7588;DHT22;3835;48.850;8.938;2024-01-06T09:11:12;5.20;99.90
7588;DHT22;3835;48.850;8.938;2024-01-06T09:13:39;5.20;99.90
7588;DHT22;3835;48.850;8.938;2024-01-06T09:16:08;5.10;99.90
7588;DHT22;3835;48.850;8.938;2024-01-06T09:18:36;5.10;99.90
7588;DHT22;3835;48.850;8.938;2024-01-06T09:21:03;5.20;99.90
7588;DHT22;3835;48.850;8.938;2024-01-06T09:23:30;4.90;99.90
7588;DHT22;3835;48.850;8.938;2024-01-06T09:25:57;5.20;99.90
7588;DHT22;3835;48.850;8.938;2024-01-06T09:28:24;5.30;99.90
7588;DHT22;3835;48.850;8.938;2024-01-06T09:30:51;5.30;99.90
7588;DHT22;3835;48.850;8.938;2024-01-06T09:33:22;5.40;99.90
7588;DHT22;3835;48.850;8.938;2024-01-06T09:35:49;5.10;99.90
7588;DHT22;3835;48.850;8.938;2024-01-06T09:38:16;5.20;99.90
7588;DHT22;3835;48.850;8.938;2024-01-06T09:40:44;5.00;99.90
7588;DHT22;3835;48.850;8.938;2024-01-06T09:43:11;5.00;99.90
7588;DHT22;3835;48.850;8.938;2024-01-06T09:45:38;5.00;99.90
7588;DHT22;3835;48.850;8.938;2024-01-06T09:48:10;5.00;99.90
7588;DHT22;3835;48.850;8.938;2024-01-06T09:50:41;5.00;99.90
7588;DHT22;3835;48.850;8.938;2024-01-06T09:53:09;5.20;99.90
7588;DHT22;3835;48.850;8.938;2024-01-06T09:55:36;4.70;99.90
7588;DHT22;3835;48.850;8.938;2024-01-06T09:58:04;4.60;99.90
7588;DHT22;3835;48.850;8.938;2024-01-06T10:00:31;4.70;99.90
7588;DHT22;3835;48.850;8.938;2024-01-06T10:02:59;4.90;99.90
7588;DHT22;3835;48.850;8.938;2024-01-06T10:05:24;4.70;99.90
7588;DHT22;3835;48.850;8.938;2024-01-06T10:07:53;4.90;99.90
7588;DHT22;3835;48.850;8.938;2024-01-06T10:10:22;4.90;99.90
7588;DHT22;3835;48.850;8.938;2024-01-06T10:12:52;5.00;99.90
7588;DHT22;3835;48.850;8.938;2024-01-06T10:15:20;4.90;99.90
7588;DHT22;3835;48.850;8.938;2024-01-06T10:17:47;5.10;99.90
7588;DHT22;3835;48.850;8.938;2024-01-06T10:20:13;5.10;99.90
7588;DHT22;3835;48.850;8.938;2024-01-06T10:22:42;5.20;99.90
7588;DHT22;3835;48.850;8.938;2024-01-06T10:25:11;5.20;99.90
7588;DHT22;3835;48.850;8.938;2024-01-06T10:27:40;4.90;99.90
7588;DHT22;3835;48.850;8.938;2024-01-06T10:30:08;5.10;99.90
7588;DHT22;3835;48.850;8.938;2024-01-06T10:32:36;4.70;99.90
7588;DHT22;3835;48.850;8.938;2024-01-06T10:35:03;4.70;99.90
7588;DHT22;3835;48.850;8.938;2024-01-06T10:37:31;4.80;99.90
7588;DHT22;3835;48.850;8.938;2024-01-06T10:40:07;4.70;99.90
7588;DHT22;3835;48.850;8.938;2024-01-06T10:42:36;4.80;99.90
7588;DHT22;3835;48.850;8.938;2024-01-06T10:45:06;4.90;99.90
7588;DHT22;3835;48.850;8.938;2024-01-06T10:47:34;4.80;99.90
7588;DHT22;3835;48.850;8.938;2024-01-06T10:50:02;4.90;99.90
7588;DHT22;3835;48.850;8.938;2024-01-06T10:52:29;4.70;99.90
7588;DHT22;3835;48.850;8.938;2024-01-06T10:54:57;5.20;99.90
7588;DHT22;3835;48.850;8.938;2024-01-06T10:57:24;4.90;99.90
7588;DHT22;3835;48.850;8.938;2024-01-06T10:59:52;4.80;99.90
7588;DHT22;3835;48.850;8.938;2024-01-06T11:02:19;4.90;99.90
7588;DHT22;3835;48.850;8.938;2024-01-06T11:04:47;4.70;99.90
7588;DHT22;3835;48.850;8.938;2024-01-06T11:07:17;4.80;99.90
7588;DHT22;3835;48.850;8.938;2024-01-06T11:09:50;4.70;99.90
7588;DHT22;3835;48.850;8.938;2024-01-06T11:12:18;5.10;99.90
7588;DHT22;3835;48.850;8.938;2024-01-06T11:14:46;4.60;99.90
7588;DHT22;3835;48.850;8.938;2024-01-06T11:17:48;4.90;99.90
7588;DHT22;3835;48.850;8.938;2024-01-06T11:20:15;4.60;99.90
7588;DHT22;3835;48.850;8.938;2024-01-06T11:22:42;4.80;99.90
7588;DHT22;3835;48.850;8.938;2024-01-06T11:25:14;4.80;99.90
7588;DHT22;3835;48.850;8.938;2024-01-06T11:27:42;4.90;99.90
7588;DHT22;3835;48.850;8.938;2024-01-06T11:30:19;5.20;99.90
7588;DHT22;3835;48.850;8.938;2024-01-06T11:32:48;5.60;99.90
7588;DHT22;3835;48.850;8.938;2024-01-06T11:35:15;5.50;99.90
7588;DHT22;3835;48.850;8.938;2024-01-06T11:37:54;5.50;99.90
7588;DHT22;3835;48.850;8.938;2024-01-06T11:40:30;5.60;99.90
7588;DHT22;3835;48.850;8.938;2024-01-06T11:43:01;5.60;99.90
7588;DHT22;3835;48.850;8.938;2024-01-06T11:45:28;5.50;99.90
7588;DHT22;3835;48.850;8.938;2024-01-06T11:47:57;5.40;99.90
7588;DHT22;3835;48.850;8.938;2024-01-06T11:50:26;5.40;99.90
7588;DHT22;3835;48.850;8.938;2024-01-06T11:52:53;5.30;99.90
7588;DHT22;3835;48.850;8.938;2024-01-06T11:55:20;5.20;99.90
7588;DHT22;3835;48.850;8.938;2024-01-06T11:57:47;5.20;99.90
7588;DHT22;3835;48.850;8.938;2024-01-06T12:00:16;5.10;99.90
7588;DHT22;3835;48.850;8.938;2024-01-06T12:02:43;5.00;99.90
7588;DHT22;3835;48.850;8.938;2024-01-06T12:05:14;4.90;99.90
7588;DHT22;3835;48.850;8.938;2024-01-06T12:07:41;5.00;99.90
7588;DHT22;3835;48.850;8.938;2024-01-06T12:10:09;5.00;99.90
7588;DHT22;3835;48.850;8.938;2024-01-06T12:12:37;5.10;99.90
7588;DHT22;3835;48.850;8.938;2024-01-06T12:15:05;5.20;99.90
7588;DHT22;3835;48.850;8.938;2024-01-06T12:17:34;5.20;99.90
7588;DHT22;3835;48.850;8.938;2024-01-06T12:20:01;5.10;99.90
7588;DHT22;3835;48.850;8.938;2024-01-06T12:22:29;4.90;99.90
7588;DHT22;3835;48.850;8.938;2024-01-06T12:24:58;5.00;99.90
7588;DHT22;3835;48.850;8.938;2024-01-06T12:27:25;4.90;99.90
7588;DHT22;3835;48.850;8.938;2024-01-06T12:29:53;4.90;99.90
7588;DHT22;3835;48.850;8.938;2024-01-06T12:32:20;4.90;99.90
7588;DHT22;3835;48.850;8.938;2024-01-06T12:34:47;4.90;99.90
7588;DHT22;3835;48.850;8.938;2024-01-06T12:37:14;4.70;99.90
7588;DHT22;3835;48.850;8.938;2024-01-06T12:39:43;5.00;99.90
7588;DHT22;3835;48.850;8.938;2024-01-06T12:42:15;4.80;99.90
7588;DHT22;3835;48.850;8.938;2024-01-06T12:44:42;4.90;99.90
7588;DHT22;3835;48.850;8.938;2024-01-06T12:47:08;5.00;99.90
7588;DHT22;3835;48.850;8.938;2024-01-06T12:49:37;5.10;99.90
7588;DHT22;3835;48.850;8.938;2024-01-06T12:52:04;5.00;99.90
7588;DHT22;3835;48.850;8.938;2024-01-06T12:54:31;4.90;99.90
7588;DHT22;3835;48.850;8.938;2024-01-06T12:57:00;5.00;99.90
7588;DHT22;3835;48.850;8.938;2024-01-06T12:59:27;5.10;99.90
7588;DHT22;3835;48.850;8.938;2024-01-06T13:01:55;5.00;99.90
7588;DHT22;3835;48.850;8.938;2024-01-06T13:04:22;5.10;99.90
7588;DHT22;3835;48.850;8.938;2024-01-06T13:06:49;4.90;99.90
7588;DHT22;3835;48.850;8.938;2024-01-06T13:09:16;5.00;99.90
7588;DHT22;3835;48.850;8.938;2024-01-06T13:11:43;4.80;99.90
7588;DHT22;3835;48.850;8.938;2024-01-06T13:14:13;4.70;99.90
7588;DHT22;3835;48.850;8.938;2024-01-06T13:16:40;4.80;99.90
7588;DHT22;3835;48.850;8.938;2024-01-06T13:19:06;4.70;99.90
7588;DHT22;3835;48.850;8.938;2024-01-06T13:21:33;4.70;99.90
7588;DHT22;3835;48.850;8.938;2024-01-06T13:24:00;4.60;99.90
7588;DHT22;3835;48.850;8.938;2024-01-06T13:26:29;4.70;99.90
7588;DHT22;3835;48.850;8.938;2024-01-06T13:28:56;4.80;99.90
7588;DHT22;3835;48.850;8.938;2024-01-06T13:31:25;5.00;99.90
7588;DHT22;3835;48.850;8.938;2024-01-06T13:33:52;4.70;99.90
7588;DHT22;3835;48.850;8.938;2024-01-06T13:36:20;4.50;99.90
7588;DHT22;3835;48.850;8.938;2024-01-06T13:38:46;4.60;99.90
7588;DHT22;3835;48.850;8.938;2024-01-06T13:41:14;4.60;99.90
7588;DHT22;3835;48.850;8.938;2024-01-06T13:43:41;4.80;99.90
7588;DHT22;3835;48.850;8.938;2024-01-06T13:46:10;4.90;99.90
7588;DHT22;3835;48.850;8.938;2024-01-06T13:48:40;4.60;99.90
7588;DHT22;3835;48.850;8.938;2024-01-06T13:51:08;4.90;99.90
7588;DHT22;3835;48.850;8.938;2024-01-06T13:53:35;4.40;99.90
7588;DHT22;3835;48.850;8.938;2024-01-06T13:56:02;4.50;99.90
7588;DHT22;3835;48.850;8.938;2024-01-06T13:58:29;4.40;99.90
7588;DHT22;3835;48.850;8.938;2024-01-06T14:00:56;4.50;99.90
7588;DHT22;3835;48.850;8.938;2024-01-06T14:03:23;4.60;99.90
7588;DHT22;3835;48.850;8.938;2024-01-06T14:05:52;4.70;99.90
7588;DHT22;3835;48.850;8.938;2024-01-06T14:08:19;4.70;99.90
7588;DHT22;3835;48.850;8.938;2024-01-06T14:10:46;4.50;99.90
7588;DHT22;3835;48.850;8.938;2024-01-06T14:13:13;4.90;99.90
7588;DHT22;3835;48.850;8.938;2024-01-06T14:15:39;4.80;99.90
7588;DHT22;3835;48.850;8.938;2024-01-06T14:18:06;4.60;99.90
7588;DHT22;3835;48.850;8.938;2024-01-06T14:20:36;4.60;99.90
7588;DHT22;3835;48.850;8.938;2024-01-06T14:23:05;4.50;99.90
7588;DHT22;3835;48.850;8.938;2024-01-06T14:25:32;4.40;99.90
7588;DHT22;3835;48.850;8.938;2024-01-06T14:27:59;4.50;99.90
7588;DHT22;3835;48.850;8.938;2024-01-06T14:30:26;4.50;99.90
7588;DHT22;3835;48.850;8.938;2024-01-06T14:32:54;4.50;99.90
7588;DHT22;3835;48.850;8.938;2024-01-06T14:35:20;4.80;99.90
7588;DHT22;3835;48.850;8.938;2024-01-06T14:37:47;4.50;99.90
7588;DHT22;3835;48.850;8.938;2024-01-06T14:40:16;4.90;99.90
7588;DHT22;3835;48.850;8.938;2024-01-06T14:42:43;4.70;99.90
7588;DHT22;3835;48.850;8.938;2024-01-06T14:45:10;4.60;99.90
7588;DHT22;3835;48.850;8.938;2024-01-06T14:47:37;4.50;99.90
7588;DHT22;3835;48.850;8.938;2024-01-06T14:50:04;4.90;99.90
7588;DHT22;3835;48.850;8.938;2024-01-06T14:52:31;4.50;99.90
7588;DHT22;3835;48.850;8.938;2024-01-06T14:54:58;4.50;99.90
7588;DHT22;3835;48.850;8.938;2024-01-06T14:57:27;4.50;99.90
7588;DHT22;3835;48.850;8.938;2024-01-06T14:59:53;4.40;99.90
7588;DHT22;3835;48.850;8.938;2024-01-06T15:02:20;4.40;99.90
7588;DHT22;3835;48.850;8.938;2024-01-06T15:04:47;4.40;99.90
7588;DHT22;3835;48.850;8.938;2024-01-06T15:07:14;4.40;99.90
7588;DHT22;3835;48.850;8.938;2024-01-06T15:09:41;4.40;99.90
7588;DHT22;3835;48.850;8.938;2024-01-06T15:12:08;4.60;99.90
7588;DHT22;3835;48.850;8.938;2024-01-06T15:14:36;4.40;99.90
7588;DHT22;3835;48.850;8.938;2024-01-06T15:17:03;4.40;99.90
7588;DHT22;3835;48.850;8.938;2024-01-06T15:19:30;4.40;99.90
7588;DHT22;3835;48.850;8.938;2024-01-06T15:21:59;4.60;99.90
7588;DHT22;3835;48.850;8.938;2024-01-06T15:24:25;4.60;99.90
7588;DHT22;3835;48.850;8.938;2024-01-06T15:26:52;4.30;99.90
7588;DHT22;3835;48.850;8.938;2024-01-06T15:29:20;4.60;99.90
7588;DHT22;3835;48.850;8.938;2024-01-06T15:31:48;4.40;99.90
7588;DHT22;3835;48.850;8.938;2024-01-06T15:34:17;4.70;99.90
7588;DHT22;3835;48.850;8.938;2024-01-06T15:36:44;4.40;99.90
7588;DHT22;3835;48.850;8.938;2024-01-06T15:39:13;4.50;99.90
7588;DHT22;3835;48.850;8.938;2024-01-06T15:41:40;4.30;99.90
7588;DHT22;3835;48.850;8.938;2024-01-06T15:44:07;4.60;99.90
7588;DHT22;3835;48.850;8.938;2024-01-06T15:46:34;4.40;99.90
7588;DHT22;3835;48.850;8.938;2024-01-06T15:49:03;4.30;99.90
7588;DHT22;3835;48.850;8.938;2024-01-06T15:51:30;4.30;99.90
7588;DHT22;3835;48.850;8.938;2024-01-06T15:53:57;4.40;99.90
7588;DHT22;3835;48.850;8.938;2024-01-06T15:56:24;4.50;99.90
7588;DHT22;3835;48.850;8.938;2024-01-06T15:58:51;4.50;99.90
7588;DHT22;3835;48.850;8.938;2024-01-06T16:01:19;4.40;99.90
7588;DHT22;3835;48.850;8.938;2024-01-06T16:03:46;4.40;99.90
7588;DHT22;3835;48.850;8.938;2024-01-06T16:06:14;4.70;99.90
7588;DHT22;3835;48.850;8.938;2024-01-06T16:08:41;4.70;99.90
7588;DHT22;3835;48.850;8.938;2024-01-06T16:11:08;4.80;99.90
7588;DHT22;3835;48.850;8.938;2024-01-06T16:13:35;4.60;99.90
7588;DHT22;3835;48.850;8.938;2024-01-06T16:16:02;4.50;99.90
7588;DHT22;3835;48.850;8.938;2024-01-06T16:18:29;4.50;99.90
7588;DHT22;3835;48.850;8.938;2024-01-06T16:20:56;4.40;99.90